createdAt,value
2022-12-11T00:17:07.231Z,54
2022-12-11T00:46:25.568Z,52
2022-12-11T01:15:45.231Z,53
2022-12-11T01:45:05.887Z,55
2022-12-11T02:14:20.134Z,54
2022-12-11T02:43:30.279Z,50
2022-12-11T03:12:42.762Z,50
2022-12-11T03:41:53.581Z,50
2022-12-11T04:11:02.375Z,49
2022-12-11T04:40:13.640Z,49
2022-12-11T05:09:22.376Z,49
2022-12-11T05:38:25.409Z,49
2022-12-11T06:07:17.297Z,50
2022-12-11T06:36:30.416Z,53
2022-12-11T07:05:35.528Z,57
2022-12-11T07:34:52.203Z,55
2022-12-11T08:03:30.504Z,49
2022-12-11T08:32:25.209Z,47
2022-12-11T09:01:40.277Z,49
2022-12-11T09:30:50.334Z,48
2022-12-11T10:00:05.382Z,50
2022-12-11T10:28:42.519Z,46
2022-12-11T10:57:49.198Z,51
2022-12-11T11:27:13.631Z,54
2022-12-11T11:55:54.112Z,51
2022-12-11T12:25:15.403Z,51
2022-12-11T12:54:23.930Z,50
2022-12-11T13:23:40.825Z,45
2022-12-11T13:53:02.589Z,47
2022-12-11T14:22:17.423Z,45
2022-12-11T14:51:36.282Z,45
2022-12-11T15:20:36.346Z,47
2022-12-11T15:49:32.261Z,45
2022-12-11T16:18:43.412Z,47
2022-12-11T16:48:02.919Z,49
2022-12-11T17:16:57.079Z,47
2022-12-11T17:45:28.858Z,47
2022-12-11T18:14:17.857Z,53
2022-12-11T18:43:07.731Z,49
2022-12-11T19:12:21.191Z,47
2022-12-11T19:41:31.787Z,46
2022-12-11T20:10:40.912Z,42
2022-12-11T20:39:57.037Z,53
2022-12-11T21:09:15.296Z,50
2022-12-11T21:38:33.085Z,49
2022-12-11T22:07:58.261Z,48
2022-12-11T22:36:38.887Z,44
2022-12-11T23:06:05.240Z,42
2022-12-11T23:34:44.011Z,44
